Virgil, KS (66870)

11:18 AM CDT on May 25, 2015 (GMT -0500)
Buffalo | | Change Station
CLOSE
Current Station
Personal Weather Station
Location: Yates Center, KS
Elevation: 935 ft
Nearby Weather Stations

Elev 935 ft 37.76 °N, 95.74 °W | Updated 11 minutes ago

Overcast
Overcast
73.2 °F
Feels Like 71 °F
N
10.4
Wind Variable Wind from SSW

Today
High -- | Low -- °F
--% Chance of Precip.
Yesterday
High -- | Low -- °F
Precip. -- in
6:07 AM 8:35 PM
Waxing Crescent, 50% visible
Pressure 29.83 in
Visibility 10.0 miles
Clouds Mostly Cloudy 1900 ft
Heat Index 71 °F
Dew Point 70 °F
Humidity 89%
Rainfall 0.05 in
Snow Depth Not available.
UV 5 out of 12
Pollen 8.30 out of 12
Air Quality Not available.
Flu Activity No Activity
METAR KEMP 251553Z AUTO 16016G23KT 10SM BKN019 22/18 A2985 RMK AO2 SLP101 T02220178

More Conditions Fewer Conditions

Pressure 29.83 in
Visibility 10.0 miles
Clouds Mostly Cloudy 1900 ft
Heat Index 71 °F
Dew Point 70 °F
Humidity 89%
Rainfall 0.05 in
Snow Depth Not available.
UV 5 out of 12
Pollen 8.30 out of 12
Air Quality Not available.
Flu Activity No Activity
METAR KEMP 251553Z AUTO 16016G23KT 10SM BKN019 22/18 A2985 RMK AO2 SLP101 T02220178

More Conditions Fewer Conditions

10-Day Weather Forecast

Almanac

Astronomy

May. 25, 2015 Rise Set
Actual Time
Civil Twilight
Nautical Twilight
Astronomical Twilight
Moon
Length of Visible Light
Length of Day
Tomorrow will be .
, % of the Moon is Illuminated

Today's Extremes

State Highs State Lows

Community

WunderPhotos

Upload Photos

1,824,041 photos uploaded!

WunderBlogs® & News

Nearby

Air Quality

  Air Quality AQ Index Pollutant
Not available.

Snow Depth

Station Depth Elevation

Earthquake Activity

City Distance Mag. Time & Date
Minimum magnitude displayed is 2.5.

Coastal Water Temperatures

Place Temperature

Stations

Nearby Weather Stations

Station Location Temp. Windchill Dew Point Humidity Wind Precip. Elev Updated Type